createdAt,value
2022-10-20T00:00:36.264Z,101396.97
2022-10-20T00:03:02.544Z,101390.66
2022-10-20T00:05:28.796Z,101387.25
2022-10-20T00:07:54.987Z,101387.34
2022-10-20T00:10:21.166Z,101382.78
2022-10-20T00:12:47.351Z,101382.66
2022-10-20T00:15:13.556Z,101387.25
2022-10-20T00:17:39.745Z,101377.41
2022-10-20T00:20:05.964Z,101379.84
2022-10-20T00:22:32.358Z,101374.50
2022-10-20T00:24:58.646Z,101373.47
2022-10-20T00:27:24.840Z,101372.00
2022-10-20T00:29:51.029Z,101373.59
2022-10-20T00:32:17.545Z,101368.97
2022-10-20T00:34:43.718Z,101364.47
2022-10-20T00:37:09.953Z,101356.47
2022-10-20T00:39:36.134Z,101359.25
2022-10-20T00:42:02.321Z,101360.75
2022-10-20T00:44:28.509Z,101363.19
2022-10-20T00:46:54.823Z,101352.94
2022-10-20T00:49:21.009Z,101358.19
2022-10-20T00:51:47.214Z,101353.81
2022-10-20T00:54:13.408Z,101351.19
2022-10-20T00:56:39.981Z,101344.81
2022-10-20T00:59:06.182Z,101345.63
2022-10-20T01:01:32.480Z,101349.00
2022-10-20T01:03:58.703Z,101340.91
2022-10-20T01:06:24.906Z,101339.84
2022-10-20T01:08:51.222Z,101338.84
2022-10-20T01:11:18.154Z,101332.66
2022-10-20T01:13:44.344Z,101332.81
2022-10-20T01:16:10.546Z,101328.34
2022-10-20T01:18:36.722Z,101324.78
2022-10-20T01:21:05.026Z,101319.22
2022-10-20T01:23:31.210Z,101314.75
2022-10-20T01:25:57.414Z,101311.91
2022-10-20T01:28:23.751Z,101319.97
2022-10-20T01:30:49.960Z,101304.03
2022-10-20T01:33:16.180Z,101310.97
2022-10-20T01:35:42.507Z,101297.78
2022-10-20T01:38:08.692Z,101303.03
2022-10-20T01:40:34.999Z,101293.31
2022-10-20T01:43:01.186Z,101288.16
2022-10-20T01:45:27.382Z,101283.69
2022-10-20T01:47:53.563Z,101286.22
2022-10-20T01:50:19.988Z,101274.69
2022-10-20T01:52:46.187Z,101273.97
2022-10-20T01:55:12.455Z,101265.16
2022-10-20T01:57:38.667Z,101267.97
2022-10-20T02:00:04.868Z,101259.91
2022-10-20T02:02:31.046Z,101254.66
2022-10-20T02:04:57.233Z,101254.00
2022-10-20T02:07:23.417Z,101251.53
2022-10-20T02:09:49.650Z,101247.25
2022-10-20T02:12:15.859Z,101230.59
2022-10-20T02:14:42.050Z,101229.50
2022-10-20T02:17:08.239Z,101220.22
2022-10-20T02:19:34.430Z,101214.00
2022-10-20T02:22:00.617Z,101207.22
2022-10-20T02:24:27.056Z,101202.69
2022-10-20T02:26:53.235Z,101196.41
2022-10-20T02:29:22.612Z,101184.00
2022-10-20T02:31:48.797Z,101190.97
2022-10-20T02:34:15.020Z,101181.22
2022-10-20T02:36:41.206Z,101179.63
2022-10-20T02:39:07.442Z,101177.13
2022-10-20T02:41:33.666Z,101165.59
2022-10-20T02:43:59.878Z,101163.25
2022-10-20T02:46:26.083Z,101158.09
2022-10-20T02:48:52.268Z,101159.56
2022-10-20T02:51:18.670Z,101162.22
2022-10-20T02:53:44.858Z,101166.22
2022-10-20T02:56:11.057Z,101153.28
2022-10-20T02:58:37.250Z,101156.94
2022-10-20T03:01:03.434Z,101158.69
2022-10-20T03:03:29.638Z,101160.66
2022-10-20T03:05:55.835Z,101154.28
2022-10-20T03:08:22.356Z,101148.81
2022-10-20T03:10:48.559Z,101147.88
2022-10-20T03:13:15.559Z,101146.72
2022-10-20T03:15:41.769Z,101146.59
2022-10-20T03:18:07.964Z,101140.22
2022-10-20T03:20:34.200Z,101135.56
2022-10-20T03:23:00.387Z,101131.91
2022-10-20T03:25:26.594Z,101128.22
2022-10-20T03:27:52.770Z,101134.53
2022-10-20T03:30:18.964Z,101131.72
2022-10-20T03:32:45.155Z,101134.03
2022-10-20T03:35:11.347Z,101138.13
2022-10-20T03:37:37.540Z,101133.56
2022-10-20T03:40:03.740Z,101126.09
2022-10-20T03:42:29.927Z,101122.63
2022-10-20T03:44:56.102Z,101122.75
2022-10-20T03:47:22.301Z,101129.78
2022-10-20T03:49:48.498Z,101128.59
2022-10-20T03:52:14.681Z,101131.25
2022-10-20T03:54:40.966Z,101136.16
2022-10-20T03:57:08.034Z,101123.78
2022-10-20T03:59:34.263Z,101138.41
2022-10-20T04:02:00.550Z,101137.06
2022-10-20T04:04:26.805Z,101127.81
2022-10-20T04:06:52.983Z,101124.66
2022-10-20T04:09:19.198Z,101113.88
2022-10-20T04:11:45.403Z,101114.44
2022-10-20T04:14:11.635Z,101120.59
2022-10-20T04:16:37.872Z,101117.47
2022-10-20T04:19:04.671Z,101110.97
2022-10-20T04:21:30.871Z,101098.28
2022-10-20T04:23:57.074Z,101099.56
2022-10-20T04:26:23.267Z,101098.03
2022-10-20T04:28:49.471Z,101104.63
2022-10-20T04:31:15.650Z,101100.66
2022-10-20T04:33:41.855Z,101097.50
2022-10-20T04:36:08.063Z,101096.28
2022-10-20T04:38:34.385Z,101087.44
2022-10-20T04:41:03.364Z,101093.63
2022-10-20T04:43:30.502Z,101086.09
2022-10-20T04:45:59.909Z,101081.59
2022-10-20T04:48:28.816Z,101078.19
2022-10-20T04:50:54.987Z,101082.41
2022-10-20T04:53:21.158Z,101078.03
2022-10-20T04:55:47.345Z,101075.94
2022-10-20T04:58:13.529Z,101070.91
2022-10-20T05:00:39.710Z,101073.69
2022-10-20T05:03:05.915Z,101057.66
2022-10-20T05:05:32.115Z,101040.28
2022-10-20T05:07:58.301Z,101043.34
2022-10-20T05:10:24.507Z,101040.16
2022-10-20T05:12:50.710Z,101043.22
2022-10-20T05:15:16.932Z,101048.25
2022-10-20T05:17:43.114Z,101037.28
2022-10-20T05:20:09.302Z,101041.31
2022-10-20T05:22:35.793Z,101040.19
2022-10-20T05:25:24.554Z,101027.53
2022-10-20T05:27:48.433Z,101028.00
2022-10-20T05:30:14.637Z,101036.69
2022-10-20T05:32:40.818Z,101037.47
2022-10-20T05:35:07.008Z,101036.41
2022-10-20T05:37:33.226Z,101037.13
2022-10-20T05:40:02.692Z,101025.47
2022-10-20T05:42:28.883Z,101023.53
2022-10-20T05:44:56.124Z,101009.97
2022-10-20T05:47:22.321Z,101025.72
2022-10-20T05:49:48.513Z,101021.75
2022-10-20T05:52:14.820Z,101021.47
2022-10-20T05:54:41.301Z,101015.19
2022-10-20T05:57:07.493Z,101020.06
2022-10-20T05:59:33.684Z,101020.63
2022-10-20T06:01:59.899Z,101026.63
2022-10-20T06:04:28.041Z,101025.63
2022-10-20T06:06:54.352Z,101030.75
2022-10-20T06:09:20.533Z,101028.88
2022-10-20T06:11:46.748Z,101028.47
2022-10-20T06:14:12.959Z,101035.38
2022-10-20T06:16:39.232Z,101036.03
2022-10-20T06:19:06.614Z,101036.81
2022-10-20T06:21:32.941Z,101029.63
2022-10-20T06:23:59.523Z,101038.13
2022-10-20T06:26:25.775Z,101034.25
2022-10-20T06:28:51.964Z,101026.91
2022-10-20T06:31:18.171Z,101031.03
2022-10-20T06:33:44.350Z,101030.69
2022-10-20T06:36:10.667Z,101036.88
2022-10-20T06:38:36.914Z,101030.19
2022-10-20T06:41:03.119Z,101029.97
2022-10-20T06:43:29.311Z,101032.44
2022-10-20T06:45:55.647Z,101029.91
2022-10-20T06:48:21.898Z,101036.03
2022-10-20T06:50:48.087Z,101038.50
2022-10-20T06:53:14.335Z,101038.03
2022-10-20T06:55:40.728Z,101043.16
2022-10-20T06:58:07.019Z,101048.75
2022-10-20T07:00:33.398Z,101045.06
2022-10-20T07:02:59.676Z,101044.53
2022-10-20T07:05:25.943Z,101055.03
2022-10-20T07:07:52.208Z,101045.22
2022-10-20T07:10:18.472Z,101042.13
2022-10-20T07:12:44.755Z,101041.28
2022-10-20T07:15:11.014Z,101044.53
2022-10-20T07:17:37.265Z,101043.00
2022-10-20T07:20:03.521Z,101038.69
2022-10-20T07:22:29.832Z,101042.47
2022-10-20T07:24:56.089Z,101038.75
2022-10-20T07:27:22.335Z,101042.84
2022-10-20T07:29:48.583Z,101033.34
2022-10-20T07:32:14.906Z,101035.53
2022-10-20T07:34:41.171Z,101031.88
2022-10-20T07:37:07.414Z,101027.78
2022-10-20T07:39:33.677Z,101018.78
2022-10-20T07:41:59.931Z,101016.94
2022-10-20T07:44:26.208Z,101020.53
2022-10-20T07:46:52.506Z,101018.53
2022-10-20T07:52:05.026Z,101027.66
2022-10-20T07:54:31.790Z,101020.22
2022-10-20T07:56:58.050Z,101019.56
2022-10-20T07:59:24.414Z,101018.19
2022-10-20T08:01:52.480Z,101006.94
2022-10-20T08:04:19.956Z,101012.09
2022-10-20T08:06:47.167Z,100998.63
2022-10-20T08:09:13.425Z,100997.94
2022-10-20T08:11:39.679Z,101007.81
2022-10-20T08:14:06.039Z,100987.69
2022-10-20T08:16:50.130Z,100999.09
2022-10-20T08:19:17.960Z,100986.06
2022-10-20T08:21:44.221Z,100983.94
2022-10-20T08:24:10.721Z,100976.19
2022-10-20T08:26:36.981Z,100978.03
2022-10-20T08:29:03.302Z,100976.50
2022-10-20T08:31:29.545Z,100957.91
2022-10-20T08:33:56.802Z,100960.88
2022-10-20T08:36:23.069Z,100954.06
2022-10-20T08:38:49.364Z,100955.97
2022-10-20T08:41:15.621Z,100956.50
2022-10-20T08:43:42.014Z,100951.28
2022-10-20T08:46:08.327Z,100952.00
2022-10-20T08:48:34.587Z,100953.13
2022-10-20T08:51:00.843Z,100961.88
2022-10-20T08:53:27.140Z,100952.47
2022-10-20T08:55:53.396Z,100952.81
2022-10-20T08:58:19.647Z,100964.94
2022-10-20T09:00:45.989Z,100962.41
2022-10-20T09:03:12.301Z,100953.13
2022-10-20T09:05:38.546Z,100950.53
2022-10-20T09:08:04.800Z,100950.72
2022-10-20T09:10:31.131Z,100949.69
2022-10-20T09:12:57.434Z,100950.53
2022-10-20T09:15:23.750Z,100939.50
2022-10-20T09:17:49.997Z,100943.78
2022-10-20T09:20:16.255Z,100933.03
2022-10-20T09:22:42.517Z,100935.75
2022-10-20T09:25:08.765Z,100943.59
2022-10-20T09:27:35.240Z,100938.34
2022-10-20T09:30:01.821Z,100942.34
2022-10-20T09:32:45.601Z,100929.38
2022-10-20T09:35:13.097Z,100934.75
2022-10-20T09:37:39.367Z,100927.31
2022-10-20T09:40:05.618Z,100932.97
2022-10-20T09:42:31.883Z,100927.91
2022-10-20T09:44:58.132Z,100933.66
2022-10-20T09:47:24.436Z,100925.91
2022-10-20T09:49:50.689Z,100916.34
2022-10-20T09:52:17.024Z,100923.91
2022-10-20T09:54:43.273Z,100920.16
2022-10-20T09:57:09.556Z,100905.75
2022-10-20T09:59:35.843Z,100913.66
2022-10-20T10:02:02.087Z,100902.06
2022-10-20T10:04:28.343Z,100910.38
2022-10-20T10:06:54.582Z,100912.31
2022-10-20T10:09:20.878Z,100915.97
2022-10-20T10:11:47.149Z,100911.75
2022-10-20T10:14:13.397Z,100902.28
2022-10-20T10:16:40.538Z,100903.25
2022-10-20T10:19:06.836Z,100900.44
2022-10-20T10:21:33.149Z,100903.03
2022-10-20T10:23:59.422Z,100898.56
2022-10-20T10:26:25.666Z,100885.28
2022-10-20T10:28:51.944Z,100887.31
2022-10-20T10:31:18.194Z,100890.28
2022-10-20T10:33:44.483Z,100889.25
2022-10-20T10:36:10.736Z,100876.66
2022-10-20T10:38:37.009Z,100872.22
2022-10-20T10:41:03.272Z,100866.81
2022-10-20T10:43:29.850Z,100869.53
2022-10-20T10:45:56.272Z,100868.28
2022-10-20T10:48:22.519Z,100871.75
2022-10-20T10:50:48.774Z,100876.19
2022-10-20T10:53:15.031Z,100864.22
2022-10-20T10:55:48.869Z,100870.84
2022-10-20T10:58:15.729Z,100858.09
2022-10-20T11:00:42.129Z,100849.97
2022-10-20T11:03:08.415Z,100838.53
2022-10-20T11:05:34.729Z,100846.44
2022-10-20T11:08:01.214Z,100843.50
2022-10-20T11:10:27.597Z,100832.13
2022-10-20T11:12:53.864Z,100828.59
2022-10-20T11:15:20.123Z,100826.28
2022-10-20T11:17:46.376Z,100832.94
2022-10-20T11:20:12.771Z,100822.88
2022-10-20T11:22:39.083Z,100829.50
2022-10-20T11:25:05.342Z,100823.78
2022-10-20T11:27:31.632Z,100820.16
2022-10-20T11:30:04.352Z,100824.41
2022-10-20T11:32:30.693Z,100809.94
2022-10-20T11:34:57.682Z,100809.72
2022-10-20T11:37:23.943Z,100799.78
2022-10-20T11:39:50.219Z,100805.28
2022-10-20T11:42:16.481Z,100805.97
2022-10-20T11:44:42.760Z,100797.19
2022-10-20T11:47:09.019Z,100799.16
2022-10-20T11:49:35.396Z,100798.78
2022-10-20T11:52:01.677Z,100803.09
2022-10-20T11:54:27.940Z,100797.25
2022-10-20T11:56:54.203Z,100804.16
2022-10-20T11:59:20.597Z,100798.06
2022-10-20T12:01:46.902Z,100795.97
2022-10-20T12:04:13.195Z,100778.94
2022-10-20T12:06:39.587Z,100787.72
2022-10-20T12:09:05.890Z,100771.69
2022-10-20T12:11:32.156Z,100780.63
2022-10-20T12:13:58.688Z,100780.66
2022-10-20T12:16:24.941Z,100780.53
2022-10-20T12:18:51.239Z,100765.06
2022-10-20T12:21:17.521Z,100763.16
2022-10-20T12:23:44.064Z,100771.34
2022-10-20T12:26:10.329Z,100763.09
2022-10-20T12:28:36.601Z,100765.75
2022-10-20T12:31:02.870Z,100761.25
2022-10-20T12:33:29.134Z,100753.66
2022-10-20T12:35:55.392Z,100746.31
2022-10-20T12:41:12.183Z,100738.41
2022-10-20T12:43:38.461Z,100731.69
2022-10-20T12:46:05.964Z,100740.59
2022-10-20T12:48:32.316Z,100726.75
2022-10-20T12:50:58.571Z,100734.63
2022-10-20T12:53:26.584Z,100724.34
2022-10-20T12:55:52.759Z,100725.66
2022-10-20T12:58:30.810Z,100726.28
2022-10-20T13:01:00.333Z,100726.75
2022-10-20T13:03:26.625Z,100724.22
2022-10-20T13:05:52.925Z,100723.72
2022-10-20T13:08:19.188Z,100726.03
2022-10-20T13:10:45.449Z,100730.47
2022-10-20T13:13:11.701Z,100726.78
2022-10-20T13:15:38.744Z,100717.81
2022-10-20T13:18:05.228Z,100723.97
2022-10-20T13:20:31.474Z,100731.09
2022-10-20T13:22:57.723Z,100727.16
2022-10-20T13:25:24.005Z,100743.34
2022-10-20T13:27:50.361Z,100709.38
2022-10-20T13:30:16.636Z,100719.56
2022-10-20T13:32:53.902Z,100715.13
2022-10-20T13:35:29.203Z,100704.69
2022-10-20T13:37:55.945Z,100703.47
2022-10-20T13:40:23.919Z,100702.81
2022-10-20T13:42:50.574Z,100693.53
2022-10-20T13:45:16.833Z,100708.25
2022-10-20T13:47:43.075Z,100689.84
2022-10-20T13:50:09.365Z,100679.16
2022-10-20T13:52:35.967Z,100675.06
2022-10-20T13:55:02.448Z,100665.88
2022-10-20T13:57:29.001Z,100667.53
2022-10-20T13:59:57.387Z,100666.31
2022-10-20T14:02:23.685Z,100665.56
2022-10-20T14:04:49.943Z,100675.34
2022-10-20T14:07:17.477Z,100681.75
2022-10-20T14:09:46.802Z,100673.41
2022-10-20T14:12:14.699Z,100678.34
2022-10-20T14:14:40.954Z,100677.56
2022-10-20T14:17:07.247Z,100676.34
2022-10-20T14:19:33.625Z,100673.66
2022-10-20T14:21:59.930Z,100672.03
2022-10-20T14:24:26.254Z,100675.44
2022-10-20T14:26:52.571Z,100675.97
2022-10-20T14:29:18.900Z,100674.72
2022-10-20T14:31:45.154Z,100672.13
2022-10-20T14:34:11.407Z,100674.19
2022-10-20T14:36:40.040Z,100672.09
2022-10-20T14:39:09.648Z,100665.00
2022-10-20T14:41:35.914Z,100661.72
2022-10-20T14:44:06.430Z,100652.19
2022-10-20T14:46:34.193Z,100652.72
2022-10-20T14:49:00.438Z,100639.81
2022-10-20T14:51:26.682Z,100646.56
2022-10-20T14:53:52.935Z,100636.53
2022-10-20T14:56:22.157Z,100629.41
2022-10-20T14:58:49.204Z,100636.69
2022-10-20T15:01:15.494Z,100628.91
2022-10-20T15:03:41.883Z,100624.41
2022-10-20T15:06:08.319Z,100619.50
2022-10-20T15:08:34.587Z,100633.72
2022-10-20T15:11:03.975Z,100631.28
2022-10-20T15:13:30.223Z,100614.69
2022-10-20T15:15:56.519Z,100626.00
2022-10-20T15:18:23.939Z,100623.78
2022-10-20T15:20:50.220Z,100625.59
2022-10-20T15:23:16.459Z,100613.28
2022-10-20T15:25:43.706Z,100611.69
2022-10-20T15:28:09.965Z,100615.56
2022-10-20T15:30:36.258Z,100618.50
2022-10-20T15:33:02.512Z,100614.31
2022-10-20T15:35:30.890Z,100601.19
2022-10-20T15:37:57.156Z,100604.31
2022-10-20T15:40:23.424Z,100595.53
2022-10-20T15:42:49.668Z,100587.03
2022-10-20T15:45:15.917Z,100582.75
2022-10-20T15:47:42.210Z,100570.06
2022-10-20T15:50:08.455Z,100581.91
2022-10-20T15:52:37.033Z,100576.41
2022-10-20T15:55:03.564Z,100579.31
2022-10-20T15:57:30.564Z,100584.03
2022-10-20T15:59:56.825Z,100587.47
2022-10-20T16:02:23.145Z,100580.16
2022-10-20T16:04:49.409Z,100577.03
2022-10-20T16:07:15.685Z,100571.66
2022-10-20T16:09:41.948Z,100567.13
2022-10-20T16:12:08.196Z,100560.81
2022-10-20T16:14:34.622Z,100553.25
2022-10-20T16:17:01.066Z,100559.19
2022-10-20T16:19:27.326Z,100561.66
2022-10-20T16:21:53.591Z,100564.56
2022-10-20T16:24:19.851Z,100569.41
2022-10-20T16:26:46.105Z,100573.09
2022-10-20T16:29:12.368Z,100577.81
2022-10-20T16:31:38.653Z,100577.53
2022-10-20T16:34:04.911Z,100575.03
2022-10-20T16:36:34.348Z,100570.50
2022-10-20T16:39:00.854Z,100579.47
2022-10-20T16:41:27.156Z,100580.00
2022-10-20T16:43:55.420Z,100571.75
2022-10-20T16:46:25.091Z,100565.72
2022-10-20T16:48:51.360Z,100570.47
2022-10-20T16:51:17.659Z,100567.31
2022-10-20T16:53:43.953Z,100561.63
2022-10-20T16:56:10.641Z,100559.25
2022-10-20T16:58:38.347Z,100563.16
2022-10-20T17:01:06.043Z,100568.63
2022-10-20T17:03:32.426Z,100568.53
2022-10-20T17:05:58.729Z,100566.16
2022-10-20T17:08:25.851Z,100554.44
2022-10-20T17:10:53.369Z,100545.28
2022-10-20T17:13:19.618Z,100547.78
2022-10-20T17:15:45.882Z,100552.38
2022-10-20T17:18:12.180Z,100542.59
2022-10-20T17:20:38.430Z,100550.59
2022-10-20T17:23:04.873Z,100544.84
2022-10-20T17:25:31.123Z,100550.88
2022-10-20T17:27:58.298Z,100542.81
2022-10-20T17:30:26.447Z,100543.00
2022-10-20T17:32:52.623Z,100546.44
2022-10-20T17:35:18.885Z,100551.22
2022-10-20T17:37:45.145Z,100552.69
2022-10-20T17:40:11.487Z,100557.09
2022-10-20T17:42:38.113Z,100554.94
2022-10-20T17:45:04.588Z,100558.59
2022-10-20T17:47:30.892Z,100555.50
2022-10-20T17:49:57.177Z,100547.63
2022-10-20T17:52:23.459Z,100549.38
2022-10-20T17:54:49.736Z,100562.78
2022-10-20T17:57:15.980Z,100549.38
2022-10-20T17:59:52.493Z,100549.03
2022-10-20T18:02:23.491Z,100540.66
2022-10-20T18:04:49.921Z,100530.97
2022-10-20T18:07:16.180Z,100535.91
2022-10-20T18:09:43.331Z,100529.16
2022-10-20T18:12:09.514Z,100529.69
2022-10-20T18:14:35.778Z,100524.09
2022-10-20T18:17:02.034Z,100518.19
2022-10-20T18:19:28.394Z,100521.97
2022-10-20T18:21:54.689Z,100511.44
2022-10-20T18:24:20.942Z,100510.34
2022-10-20T18:26:47.403Z,100494.44
2022-10-20T18:29:13.664Z,100488.00
2022-10-20T18:31:39.914Z,100477.47
2022-10-20T18:34:07.146Z,100476.41
2022-10-20T18:36:33.632Z,100474.56
2022-10-20T18:41:50.218Z,100475.53
2022-10-20T18:44:16.630Z,100466.31
2022-10-20T18:46:42.996Z,100457.41
2022-10-20T18:49:09.238Z,100454.72
2022-10-20T18:51:35.676Z,100449.53
2022-10-20T18:54:01.923Z,100447.59
2022-10-20T18:56:28.170Z,100441.63
2022-10-20T18:58:54.410Z,100437.09
2022-10-20T19:01:20.737Z,100428.06
2022-10-20T19:03:47.097Z,100442.00
2022-10-20T19:06:13.403Z,100442.13
2022-10-20T19:08:39.761Z,100427.84
2022-10-20T19:11:06.047Z,100436.63
2022-10-20T19:13:32.504Z,100433.94
2022-10-20T19:15:58.774Z,100417.13
2022-10-20T19:18:25.030Z,100409.16
2022-10-20T19:20:53.327Z,100410.75
2022-10-20T19:23:19.580Z,100425.50
2022-10-20T19:25:47.267Z,100430.22
2022-10-20T19:28:13.563Z,100421.84
2022-10-20T19:30:39.831Z,100419.25
2022-10-20T19:33:06.094Z,100426.34
2022-10-20T19:35:32.367Z,100415.81
2022-10-20T19:37:58.620Z,100418.50
2022-10-20T19:40:27.645Z,100410.34
2022-10-20T19:42:54.758Z,100400.69
2022-10-20T19:45:21.002Z,100398.84
2022-10-20T19:47:47.264Z,100401.19
2022-10-20T19:50:13.518Z,100399.59
2022-10-20T19:52:40.016Z,100402.06
2022-10-20T19:55:06.431Z,100407.31
2022-10-20T19:57:32.860Z,100403.88
2022-10-20T19:59:59.356Z,100392.19
2022-10-20T20:02:25.611Z,100388.34
2022-10-20T20:04:51.889Z,100390.03
2022-10-20T20:09:51.660Z,100409.81
2022-10-20T20:12:18.227Z,100421.06
2022-10-20T20:14:44.642Z,100426.25
2022-10-20T20:17:11.222Z,100426.13
2022-10-20T20:19:37.595Z,100429.78
2022-10-20T20:22:03.910Z,100428.28
2022-10-20T20:24:30.169Z,100421.72
2022-10-20T20:26:58.243Z,100418.63
2022-10-20T20:29:24.415Z,100418.38
2022-10-20T20:31:50.741Z,100413.25
2022-10-20T20:34:17.017Z,100405.09
2022-10-20T20:36:43.283Z,100400.81
2022-10-20T20:39:09.542Z,100411.09
2022-10-20T20:41:37.385Z,100412.16
2022-10-20T20:44:07.930Z,100420.44
2022-10-20T20:46:36.011Z,100407.22
2022-10-20T20:49:02.319Z,100398.41
2022-10-20T20:51:33.843Z,100400.78
2022-10-20T20:54:00.484Z,100394.97
2022-10-20T20:56:27.884Z,100389.41
2022-10-20T20:58:55.271Z,100384.13
2022-10-20T21:01:21.947Z,100385.75
2022-10-20T21:03:48.327Z,100371.56
2022-10-20T21:06:14.595Z,100393.28
2022-10-20T21:08:40.927Z,100390.38
2022-10-20T21:11:07.200Z,100388.00
2022-10-20T21:13:33.458Z,100392.72
2022-10-20T21:15:59.705Z,100390.78
2022-10-20T21:18:25.954Z,100389.84
2022-10-20T21:20:52.250Z,100385.97
2022-10-20T21:23:18.786Z,100391.34
2022-10-20T21:25:45.026Z,100411.75
2022-10-20T21:28:11.449Z,100440.31
2022-10-20T21:30:37.705Z,100444.28
2022-10-20T21:33:03.968Z,100450.00
2022-10-20T21:35:30.235Z,100438.19
2022-10-20T21:37:56.487Z,100439.88
2022-10-20T21:40:22.756Z,100454.91
2022-10-20T21:42:49.011Z,100451.81
2022-10-20T21:45:18.255Z,100461.56
2022-10-20T21:47:45.410Z,100462.00
2022-10-20T21:50:11.665Z,100469.63
2022-10-20T21:52:39.168Z,100466.19
2022-10-20T21:55:05.631Z,100449.31
2022-10-20T21:57:31.882Z,100456.94
2022-10-20T21:59:58.126Z,100465.00
2022-10-20T22:02:24.382Z,100470.03
2022-10-20T22:04:50.626Z,100461.13
2022-10-20T22:07:16.882Z,100461.03
2022-10-20T22:09:43.150Z,100475.88
2022-10-20T22:12:09.398Z,100469.00
2022-10-20T22:14:35.687Z,100456.59
2022-10-20T22:17:02.014Z,100457.41
2022-10-20T22:19:28.267Z,100456.59
2022-10-20T22:21:54.729Z,100459.41
2022-10-20T22:24:21.063Z,100451.78
2022-10-20T22:26:47.325Z,100450.50
2022-10-20T22:29:13.595Z,100452.78
2022-10-20T22:31:39.858Z,100456.41
2022-10-20T22:34:06.311Z,100454.16
2022-10-20T22:36:32.558Z,100454.16
2022-10-20T22:39:00.378Z,100435.13
2022-10-20T22:41:26.670Z,100440.94
2022-10-20T22:43:52.927Z,100448.34
2022-10-20T22:46:19.191Z,100449.97
2022-10-20T22:48:46.258Z,100454.72
2022-10-20T22:51:12.526Z,100452.09
2022-10-20T22:53:38.785Z,100440.41
2022-10-20T22:56:05.450Z,100439.84
2022-10-20T22:58:31.690Z,100437.47
2022-10-20T23:00:58.022Z,100429.75
2022-10-20T23:03:24.299Z,100426.31
2022-10-20T23:05:50.581Z,100428.34
2022-10-20T23:08:16.834Z,100430.81
2022-10-20T23:10:43.083Z,100413.44
2022-10-20T23:13:09.345Z,100415.16
2022-10-20T23:15:35.608Z,100415.25
2022-10-20T23:18:01.908Z,100411.03
2022-10-20T23:20:28.160Z,100402.69
2022-10-20T23:22:54.457Z,100400.19
2022-10-20T23:25:20.716Z,100390.22
2022-10-20T23:27:46.972Z,100389.25
2022-10-20T23:30:13.231Z,100392.06
2022-10-20T23:32:39.472Z,100392.56
2022-10-20T23:35:05.733Z,100383.53
2022-10-20T23:37:32.057Z,100392.97
2022-10-20T23:39:58.384Z,100385.25
2022-10-20T23:42:24.648Z,100389.53
2022-10-20T23:44:50.906Z,100392.06
2022-10-20T23:47:17.157Z,100409.03
2022-10-20T23:49:43.407Z,100411.16
2022-10-20T23:52:09.665Z,100411.91
2022-10-20T23:54:35.914Z,100402.97
2022-10-20T23:57:02.566Z,100404.16
2022-10-20T23:59:28.818Z,100411.03
